createdAt,value
2017-07-03T00:00:52.477Z,19.70
2017-07-03T00:03:20.797Z,19.80
2017-07-03T00:05:49.063Z,19.70
2017-07-03T00:08:18.108Z,19.40
2017-07-03T00:10:46.523Z,19.40
2017-07-03T00:13:14.806Z,19.30
2017-07-03T00:15:43.183Z,19.20
2017-07-03T00:18:11.466Z,19.50
2017-07-03T00:20:39.749Z,20.90
2017-07-03T00:23:08.794Z,22.60
2017-07-03T00:25:37.112Z,22.60
2017-07-03T00:28:05.402Z,23.00
2017-07-03T00:30:33.691Z,23.20
2017-07-03T00:33:02.000Z,23.10
2017-07-03T00:35:30.272Z,23.10
2017-07-03T00:37:58.527Z,23.20
2017-07-03T00:40:26.842Z,23.30
2017-07-03T00:42:55.903Z,23.90
2017-07-03T00:45:24.196Z,23.90
2017-07-03T00:47:53.282Z,23.80
2017-07-03T00:50:21.547Z,23.80
2017-07-03T00:52:49.826Z,23.80
2017-07-03T00:55:18.110Z,23.80
2017-07-03T00:57:46.395Z,23.80
2017-07-03T01:00:14.719Z,24.10
2017-07-03T01:02:43.062Z,24.30
2017-07-03T01:05:11.380Z,24.50
2017-07-03T01:07:40.442Z,24.20
2017-07-03T01:10:08.746Z,24.20
2017-07-03T01:12:37.007Z,24.20
2017-07-03T01:15:05.277Z,24.20
2017-07-03T01:17:33.581Z,24.30
2017-07-03T01:20:01.861Z,24.50
2017-07-03T01:22:30.906Z,24.80
2017-07-03T01:24:59.228Z,24.70
2017-07-03T01:27:27.512Z,24.70
2017-07-03T01:29:55.784Z,24.60
2017-07-03T01:32:24.062Z,24.50
2017-07-03T01:34:52.319Z,24.50
2017-07-03T01:37:20.574Z,24.50
2017-07-03T01:39:48.899Z,24.60
2017-07-03T01:42:17.195Z,24.70
2017-07-03T01:44:45.472Z,24.80
2017-07-03T01:47:13.759Z,24.80
2017-07-03T01:49:42.818Z,24.60
2017-07-03T01:52:11.880Z,24.60
2017-07-03T01:54:40.190Z,24.60
2017-07-03T01:57:08.469Z,24.60
2017-07-03T01:59:36.760Z,24.80
2017-07-03T02:02:05.401Z,24.80
2017-07-03T02:04:33.686Z,24.80
2017-07-03T02:07:01.946Z,24.80
2017-07-03T02:09:30.273Z,24.80
2017-07-03T02:11:58.549Z,24.80
2017-07-03T02:14:26.805Z,24.90
2017-07-03T02:16:56.028Z,25.00
2017-07-03T02:19:25.118Z,25.10
2017-07-03T02:21:53.362Z,25.10
2017-07-03T02:24:21.664Z,25.00
2017-07-03T02:26:49.947Z,25.00
2017-07-03T02:29:18.205Z,24.90
2017-07-03T02:31:46.515Z,24.90
2017-07-03T02:34:15.576Z,25.00
2017-07-03T02:36:43.830Z,25.00
2017-07-03T02:39:12.438Z,25.10
2017-07-03T02:41:40.694Z,25.10
2017-07-03T02:44:08.970Z,25.10
2017-07-03T02:46:37.283Z,25.00
2017-07-03T02:49:05.576Z,25.00
2017-07-03T02:51:33.869Z,25.00
2017-07-03T02:54:02.184Z,25.10
2017-07-03T02:56:31.217Z,25.20
2017-07-03T02:58:59.491Z,25.20
2017-07-03T03:01:27.797Z,25.10
2017-07-03T03:03:56.063Z,25.10
2017-07-03T03:06:24.318Z,25.10
2017-07-03T03:08:52.629Z,25.10
2017-07-03T03:11:20.906Z,25.20
2017-07-03T03:13:49.166Z,25.30
2017-07-03T03:16:17.489Z,25.30
2017-07-03T03:18:45.755Z,25.40
2017-07-03T03:21:14.006Z,25.30
2017-07-03T03:23:42.318Z,25.20
2017-07-03T03:26:11.380Z,25.20
2017-07-03T03:28:39.657Z,25.20
2017-07-03T03:31:08.734Z,25.30
2017-07-03T03:33:37.786Z,25.30
2017-07-03T03:36:06.069Z,25.30
2017-07-03T03:38:35.142Z,25.30
2017-07-03T03:41:03.422Z,25.30
2017-07-03T03:43:32.487Z,25.30
2017-07-03T03:46:01.543Z,25.30
2017-07-03T03:48:29.821Z,25.30
2017-07-03T03:50:58.865Z,25.40
2017-07-03T03:53:27.183Z,25.40
2017-07-03T03:55:55.470Z,25.40
2017-07-03T03:58:23.768Z,25.40
2017-07-03T04:00:52.077Z,25.40
2017-07-03T04:03:20.360Z,25.40
2017-07-03T04:05:48.641Z,25.40
2017-07-03T04:08:16.946Z,25.40
2017-07-03T04:10:45.226Z,25.40
2017-07-03T04:13:13.520Z,25.50
2017-07-03T04:15:41.833Z,25.50
2017-07-03T04:18:10.090Z,25.40
2017-07-03T04:20:38.374Z,25.40
2017-07-03T04:23:06.666Z,25.40
2017-07-03T04:25:34.922Z,25.40
2017-07-03T04:28:03.206Z,25.50
2017-07-03T04:30:32.344Z,25.50
2017-07-03T04:33:00.640Z,25.50
2017-07-03T04:35:28.928Z,25.50
2017-07-03T04:37:57.237Z,25.50
2017-07-03T04:40:25.513Z,25.50
2017-07-03T04:42:53.790Z,25.50
2017-07-03T04:45:22.884Z,25.50
2017-07-03T04:47:51.190Z,25.50
2017-07-03T04:50:19.470Z,25.60
2017-07-03T04:52:47.770Z,25.60
2017-07-03T04:55:16.060Z,25.50
2017-07-03T04:57:44.327Z,25.50
2017-07-03T05:00:12.650Z,25.50
2017-07-03T05:02:40.914Z,25.50
2017-07-03T05:05:09.203Z,25.50
2017-07-03T05:07:37.494Z,25.60
2017-07-03T05:10:05.774Z,25.60
2017-07-03T05:12:34.813Z,25.60
2017-07-03T05:15:03.095Z,25.50
2017-07-03T05:17:31.359Z,25.50
2017-07-03T05:19:59.637Z,25.60
2017-07-03T05:22:28.718Z,25.60
2017-07-03T05:24:57.763Z,25.70
2017-07-03T05:27:26.039Z,25.70
2017-07-03T05:29:54.321Z,25.70
2017-07-03T05:32:22.517Z,25.70
2017-07-03T05:34:50.795Z,25.60
2017-07-03T05:37:19.091Z,25.60
2017-07-03T05:39:48.162Z,25.70
2017-07-03T05:42:17.027Z,25.70
2017-07-03T05:44:46.106Z,25.70
2017-07-03T05:47:14.379Z,25.70
2017-07-03T05:49:43.420Z,25.70
2017-07-03T05:52:11.534Z,25.70
2017-07-03T05:54:39.790Z,25.70
2017-07-03T05:57:08.071Z,25.70
2017-07-03T05:59:36.190Z,25.70
2017-07-03T06:02:05.229Z,25.70
2017-07-03T06:04:33.510Z,25.70
2017-07-03T06:07:01.809Z,25.70
2017-07-03T06:09:30.103Z,25.70
2017-07-03T06:11:58.358Z,25.70
2017-07-03T06:14:26.671Z,25.70
2017-07-03T06:16:54.954Z,25.70
2017-07-03T06:19:23.252Z,25.70
2017-07-03T06:21:51.562Z,25.70
2017-07-03T06:24:19.838Z,25.80
2017-07-03T06:26:48.127Z,25.80
2017-07-03T06:29:16.427Z,25.70
2017-07-03T06:31:45.482Z,25.70
2017-07-03T06:34:13.772Z,25.70
2017-07-03T06:36:42.846Z,25.80
2017-07-03T06:39:11.884Z,25.70
2017-07-03T06:41:40.146Z,25.70
2017-07-03T06:44:08.473Z,25.80
2017-07-03T06:46:36.767Z,25.80
2017-07-03T06:49:05.046Z,25.70
2017-07-03T06:51:33.367Z,25.80
2017-07-03T06:54:01.647Z,25.80
2017-07-03T06:56:29.924Z,25.80
2017-07-03T06:58:58.207Z,25.80
2017-07-03T07:01:27.265Z,25.80
2017-07-03T07:03:55.523Z,25.80
2017-07-03T07:06:23.838Z,25.80
2017-07-03T07:08:52.126Z,25.80
2017-07-03T07:11:20.203Z,25.80
2017-07-03T07:13:48.519Z,25.80
2017-07-03T07:16:16.791Z,25.80
2017-07-03T07:18:45.073Z,25.90
2017-07-03T07:21:13.382Z,25.90
2017-07-03T07:23:41.646Z,25.90
2017-07-03T07:26:09.916Z,25.90
2017-07-03T07:28:38.226Z,25.90
2017-07-03T07:31:06.497Z,25.80
2017-07-03T07:33:35.551Z,25.90
2017-07-03T07:36:03.870Z,25.90
2017-07-03T07:38:32.129Z,25.90
2017-07-03T07:41:00.404Z,26.00
2017-07-03T07:43:28.695Z,25.90
2017-07-03T07:45:56.960Z,25.90
2017-07-03T07:48:25.233Z,25.90
2017-07-03T07:50:54.288Z,25.90
2017-07-03T07:53:22.563Z,25.90
2017-07-03T07:55:50.837Z,26.00
2017-07-03T07:58:19.908Z,26.00
2017-07-03T08:00:48.936Z,26.00
2017-07-03T08:03:17.233Z,25.90
2017-07-03T08:05:45.532Z,26.00
2017-07-03T08:08:13.791Z,25.90
2017-07-03T08:10:42.054Z,25.90
2017-07-03T08:13:10.446Z,25.90
2017-07-03T08:15:38.700Z,25.90
2017-07-03T08:18:06.954Z,25.90
2017-07-03T08:20:35.293Z,25.90
2017-07-03T08:23:03.684Z,25.90
2017-07-03T08:25:31.997Z,25.90
2017-07-03T08:28:01.066Z,25.90
2017-07-03T08:30:30.117Z,25.90
2017-07-03T08:32:58.399Z,25.90
2017-07-03T08:35:26.715Z,25.90
2017-07-03T08:37:55.008Z,25.90
2017-07-03T08:40:23.299Z,25.90
2017-07-03T08:42:52.398Z,25.90
2017-07-03T08:45:20.660Z,25.90
2017-07-03T08:47:48.946Z,25.90
2017-07-03T08:50:17.271Z,25.90
2017-07-03T08:52:45.564Z,26.00
2017-07-03T08:55:13.857Z,26.00
2017-07-03T08:57:42.175Z,26.00
2017-07-03T09:00:10.469Z,25.90
2017-07-03T09:02:38.760Z,25.90
2017-07-03T09:05:07.848Z,26.00
2017-07-03T09:07:36.197Z,25.90
2017-07-03T09:10:05.249Z,25.90
2017-07-03T09:12:33.562Z,25.90
2017-07-03T09:15:01.843Z,25.90
2017-07-03T09:17:30.121Z,25.80
2017-07-03T09:19:58.426Z,25.70
2017-07-03T09:22:26.704Z,25.70
2017-07-03T09:24:54.977Z,25.60
2017-07-03T09:27:23.290Z,25.60
2017-07-03T09:29:52.339Z,25.60
2017-07-03T09:32:20.620Z,25.50
2017-07-03T09:34:48.925Z,25.50
2017-07-03T09:37:17.216Z,25.50
2017-07-03T09:39:45.498Z,25.50
2017-07-03T09:42:13.806Z,25.50
2017-07-03T09:44:42.078Z,25.50
2017-07-03T09:47:10.371Z,25.50
2017-07-03T09:49:38.681Z,25.50
2017-07-03T09:52:06.944Z,25.40
2017-07-03T09:54:35.232Z,25.40
2017-07-03T09:57:03.533Z,25.40
2017-07-03T09:59:31.805Z,25.40
2017-07-03T10:02:00.836Z,25.50
2017-07-03T10:04:29.147Z,25.40
2017-07-03T10:06:58.202Z,25.40
2017-07-03T10:09:26.478Z,25.40
2017-07-03T10:11:55.371Z,25.40
2017-07-03T10:14:23.638Z,25.40
2017-07-03T10:16:51.922Z,25.50
2017-07-03T10:19:20.231Z,25.70
2017-07-03T10:21:49.286Z,25.90
2017-07-03T10:24:17.542Z,25.80
2017-07-03T10:26:45.845Z,25.80
2017-07-03T10:29:14.130Z,25.70
2017-07-03T10:31:42.406Z,25.70
2017-07-03T10:34:10.708Z,25.70
2017-07-03T10:36:39.741Z,25.10
2017-07-03T10:39:08.017Z,25.10
2017-07-03T10:41:36.317Z,25.00
2017-07-03T10:44:05.375Z,24.90
2017-07-03T10:46:33.653Z,25.00
2017-07-03T10:49:02.747Z,25.00
2017-07-03T10:51:31.019Z,25.00
2017-07-03T10:53:59.297Z,25.00
2017-07-03T10:56:27.574Z,25.00
2017-07-03T10:58:55.868Z,25.00
2017-07-03T11:01:24.919Z,25.00
2017-07-03T11:03:53.225Z,25.00
2017-07-03T11:06:21.491Z,25.00
2017-07-03T11:08:49.771Z,25.00
2017-07-03T11:11:18.051Z,25.00
2017-07-03T11:13:46.318Z,25.00
2017-07-03T11:16:14.577Z,25.00
2017-07-03T11:18:42.873Z,25.00
2017-07-03T11:21:11.945Z,24.90
2017-07-03T11:23:40.968Z,24.90
2017-07-03T11:26:09.269Z,24.80
2017-07-03T11:28:37.545Z,24.80
2017-07-03T11:31:06.589Z,24.70
2017-07-03T11:33:34.909Z,24.70
2017-07-03T11:36:03.195Z,24.70
2017-07-03T11:38:31.450Z,24.60
2017-07-03T11:40:59.743Z,24.50
2017-07-03T11:43:28.002Z,24.40
2017-07-03T11:45:56.263Z,24.40
2017-07-03T11:48:24.659Z,24.40
2017-07-03T11:50:52.919Z,24.30
2017-07-03T11:53:21.195Z,24.30
2017-07-03T11:55:49.518Z,24.30
2017-07-03T11:58:18.652Z,24.20
2017-07-03T12:00:46.947Z,24.20
2017-07-03T12:03:15.267Z,24.20
2017-07-03T12:05:43.557Z,24.10
2017-07-03T12:08:12.610Z,24.10
2017-07-03T12:10:40.937Z,24.10
2017-07-03T12:13:09.194Z,24.10
2017-07-03T12:15:37.487Z,24.00
2017-07-03T12:18:05.789Z,24.00
2017-07-03T12:20:34.060Z,24.00
2017-07-03T12:23:02.358Z,24.00
2017-07-03T12:25:30.659Z,23.90
2017-07-03T12:27:59.706Z,23.90
2017-07-03T12:30:27.987Z,23.90
2017-07-03T12:32:56.354Z,23.90
2017-07-03T12:35:25.444Z,23.80
2017-07-03T12:37:53.726Z,23.90
2017-07-03T12:40:22.015Z,23.80
2017-07-03T12:42:50.316Z,23.80
2017-07-03T12:45:18.605Z,23.80
2017-07-03T12:47:46.731Z,23.80
2017-07-03T12:50:15.778Z,23.80
2017-07-03T12:52:44.058Z,23.80
2017-07-03T12:55:13.141Z,23.80
2017-07-03T12:57:42.181Z,23.80
2017-07-03T13:00:10.269Z,23.70
2017-07-03T13:02:39.351Z,23.70
2017-07-03T13:05:08.393Z,23.70
2017-07-03T13:07:36.689Z,23.70
2017-07-03T13:10:05.000Z,23.70
2017-07-03T13:12:34.022Z,23.70
2017-07-03T13:15:02.315Z,23.70
2017-07-03T13:17:30.639Z,23.70
2017-07-03T13:19:58.933Z,23.70
2017-07-03T13:22:27.284Z,23.70
2017-07-03T13:24:55.593Z,23.70
2017-07-03T13:27:23.872Z,23.70
2017-07-03T13:29:52.150Z,23.70
2017-07-03T13:32:20.450Z,23.70
2017-07-03T13:34:49.512Z,23.70
2017-07-03T13:37:17.793Z,23.70
2017-07-03T13:39:46.886Z,23.70
2017-07-03T13:42:15.169Z,23.70
2017-07-03T13:44:43.435Z,23.70
2017-07-03T13:47:11.742Z,23.70
2017-07-03T13:49:40.030Z,23.70
2017-07-03T13:52:08.290Z,23.70
2017-07-03T13:54:36.604Z,23.70
2017-07-03T13:57:04.883Z,23.70
2017-07-03T13:59:33.161Z,23.70
2017-07-03T14:02:02.222Z,23.70
2017-07-03T14:04:30.519Z,23.70
2017-07-03T14:06:58.797Z,23.70
2017-07-03T14:09:29.003Z,23.70
2017-07-03T14:11:57.291Z,23.70
2017-07-03T14:14:25.575Z,23.70
2017-07-03T14:16:54.688Z,23.60
2017-07-03T14:19:22.980Z,23.60
2017-07-03T14:21:51.261Z,23.70
2017-07-03T14:24:19.567Z,23.60
2017-07-03T14:26:47.828Z,23.60
2017-07-03T14:29:16.110Z,23.60
2017-07-03T14:31:44.410Z,23.60
2017-07-03T14:34:12.705Z,23.60
2017-07-03T14:36:41.082Z,23.60
2017-07-03T14:39:09.377Z,23.60
2017-07-03T14:41:38.441Z,23.60
2017-07-03T14:44:07.508Z,23.60
2017-07-03T14:46:35.836Z,23.70
2017-07-03T14:49:04.138Z,23.60
2017-07-03T14:51:33.194Z,23.60
2017-07-03T14:54:01.507Z,23.60
2017-07-03T14:56:29.762Z,23.60
2017-07-03T14:58:58.018Z,23.60
2017-07-03T15:01:26.354Z,23.60
2017-07-03T15:03:54.644Z,23.60
2017-07-03T15:06:22.906Z,23.60
2017-07-03T15:08:51.214Z,23.70
2017-07-03T15:11:19.497Z,23.70
2017-07-03T15:13:47.792Z,23.70
2017-07-03T15:16:16.115Z,23.70
2017-07-03T15:18:44.386Z,23.70
2017-07-03T15:21:13.440Z,23.70
2017-07-03T15:23:41.759Z,23.70
2017-07-03T15:26:10.052Z,23.70
2017-07-03T15:28:39.110Z,23.70
2017-07-03T15:31:07.416Z,23.70
2017-07-03T15:33:35.698Z,23.70
2017-07-03T15:36:03.977Z,23.70
2017-07-03T15:38:32.282Z,23.70
2017-07-03T15:41:00.547Z,23.70
2017-07-03T15:43:28.799Z,23.70
2017-07-03T15:45:57.101Z,23.70
2017-07-03T15:48:25.391Z,23.70
2017-07-03T15:50:53.669Z,23.70
2017-07-03T15:53:21.973Z,23.70
2017-07-03T15:55:51.027Z,23.70
2017-07-03T15:58:19.311Z,23.80
2017-07-03T16:00:48.377Z,23.80
2017-07-03T16:03:17.421Z,23.80
2017-07-03T16:05:45.702Z,23.80
2017-07-03T16:08:14.006Z,23.80
2017-07-03T16:10:42.262Z,23.80
2017-07-03T16:13:10.532Z,23.80
2017-07-03T16:15:38.845Z,23.80
2017-07-03T16:18:07.099Z,23.80
2017-07-03T16:20:35.191Z,23.80
2017-07-03T16:23:03.506Z,23.80
2017-07-03T16:25:31.782Z,23.80
2017-07-03T16:28:00.091Z,23.80
2017-07-03T16:30:28.399Z,23.80
2017-07-03T16:32:56.677Z,23.80
2017-07-03T16:35:25.704Z,23.80
2017-07-03T16:37:54.018Z,23.80
2017-07-03T16:40:23.048Z,23.80
2017-07-03T16:42:51.326Z,23.80
2017-07-03T16:45:19.625Z,23.80
2017-07-03T16:47:47.910Z,23.90
2017-07-03T16:50:16.290Z,23.90
2017-07-03T16:52:44.603Z,23.90
2017-07-03T16:55:13.641Z,23.90
2017-07-03T16:57:41.919Z,23.90
2017-07-03T17:00:10.248Z,23.90
2017-07-03T17:02:38.522Z,23.90
2017-07-03T17:05:06.807Z,23.90
2017-07-03T17:07:35.095Z,23.90
2017-07-03T17:10:03.391Z,23.90
2017-07-03T17:12:31.687Z,23.90
2017-07-03T17:14:59.967Z,23.90
2017-07-03T17:17:29.028Z,23.90
2017-07-03T17:19:58.074Z,23.90
2017-07-03T17:22:26.393Z,23.90
2017-07-03T17:24:54.688Z,23.90
2017-07-03T17:27:23.050Z,23.90
2017-07-03T17:29:51.380Z,23.90
2017-07-03T17:32:19.635Z,23.90
2017-07-03T17:34:47.918Z,23.90
2017-07-03T17:37:16.227Z,23.90
2017-07-03T17:39:44.514Z,24.00
2017-07-03T17:42:12.790Z,24.00
2017-07-03T17:44:41.105Z,24.00
2017-07-03T17:47:09.377Z,24.00
2017-07-03T17:49:38.427Z,24.00
2017-07-03T17:52:06.719Z,24.00
2017-07-03T17:54:35.761Z,24.00
2017-07-03T17:57:04.041Z,24.00
2017-07-03T17:59:33.132Z,24.00
2017-07-03T18:02:02.183Z,24.00
2017-07-03T18:04:30.480Z,24.00
2017-07-03T18:06:59.755Z,24.00
2017-07-03T18:09:28.820Z,24.00
2017-07-03T18:11:57.082Z,24.00
2017-07-03T18:14:25.381Z,24.10
2017-07-03T18:16:53.639Z,24.00
2017-07-03T18:19:21.891Z,24.00
2017-07-03T18:21:50.179Z,24.00
2017-07-03T18:24:18.449Z,24.00
2017-07-03T18:26:46.730Z,24.10
2017-07-03T18:29:15.048Z,24.10
2017-07-03T18:31:43.329Z,24.20
2017-07-03T18:34:11.591Z,24.20
2017-07-03T18:36:39.915Z,24.20
2017-07-03T18:39:08.190Z,24.20
2017-07-03T18:41:36.470Z,24.10
2017-07-03T18:44:04.792Z,24.10
2017-07-03T18:46:33.069Z,24.10
2017-07-03T18:49:01.363Z,24.10
2017-07-03T18:51:29.678Z,24.10
2017-07-03T18:53:57.938Z,24.10
2017-07-03T18:56:26.203Z,24.10
2017-07-03T18:58:54.525Z,24.10
2017-07-03T19:01:23.572Z,24.10
2017-07-03T19:03:51.837Z,24.10
2017-07-03T19:06:20.141Z,24.10
2017-07-03T19:08:49.197Z,24.10
2017-07-03T19:11:18.267Z,24.10
2017-07-03T19:13:46.579Z,24.10
2017-07-03T19:16:14.839Z,24.10
2017-07-03T19:18:43.131Z,24.10
2017-07-03T19:21:11.420Z,24.10
2017-07-03T19:23:39.678Z,24.10
2017-07-03T19:26:08.734Z,24.10
2017-07-03T19:28:37.061Z,24.10
2017-07-03T19:31:05.333Z,24.10
2017-07-03T19:33:33.586Z,24.10
2017-07-03T19:36:01.902Z,24.10
2017-07-03T19:38:30.171Z,24.10
2017-07-03T19:40:59.221Z,24.10
2017-07-03T19:43:27.539Z,24.10
2017-07-03T19:45:55.816Z,24.10
2017-07-03T19:48:24.071Z,24.10
2017-07-03T19:50:52.401Z,24.10
2017-07-03T19:53:21.446Z,24.00
2017-07-03T19:55:49.735Z,24.10
2017-07-03T19:58:18.813Z,24.00
2017-07-03T20:00:47.087Z,24.00
2017-07-03T20:03:15.358Z,24.00
2017-07-03T20:05:43.662Z,24.00
2017-07-03T20:08:11.952Z,24.00
2017-07-03T20:10:41.001Z,24.00
2017-07-03T20:13:09.322Z,24.00
2017-07-03T20:15:37.582Z,24.00
2017-07-03T20:18:05.838Z,24.00
2017-07-03T20:20:34.127Z,24.00
2017-07-03T20:23:02.424Z,24.00
2017-07-03T20:25:31.453Z,24.00
2017-07-03T20:27:59.739Z,24.00
2017-07-03T20:30:28.013Z,24.00
2017-07-03T20:32:56.305Z,24.00
2017-07-03T20:35:24.636Z,24.00
2017-07-03T20:37:53.698Z,24.00
2017-07-03T20:40:21.974Z,24.00
2017-07-03T20:42:50.298Z,23.80
2017-07-03T20:45:18.724Z,23.60
2017-07-03T20:47:47.173Z,23.40
2017-07-03T20:50:16.237Z,23.00
2017-07-03T20:52:44.543Z,23.00
2017-07-03T20:55:12.837Z,22.90
2017-07-03T20:57:41.150Z,22.80
2017-07-03T21:00:09.410Z,22.70
2017-07-03T21:02:37.704Z,22.70
2017-07-03T21:05:06.010Z,22.60
2017-07-03T21:07:35.053Z,22.50
2017-07-03T21:10:03.339Z,22.50
2017-07-03T21:12:31.656Z,22.50
2017-07-03T21:14:59.925Z,22.50
2017-07-03T21:17:28.213Z,22.50
2017-07-03T21:19:56.502Z,22.50
2017-07-03T21:22:25.537Z,22.70
2017-07-03T21:24:53.821Z,22.70
2017-07-03T21:27:22.908Z,22.90
2017-07-03T21:29:51.945Z,23.00
2017-07-03T21:32:20.213Z,23.00
2017-07-03T21:34:48.525Z,23.00
2017-07-03T21:37:16.817Z,23.10
2017-07-03T21:39:45.093Z,23.10
2017-07-03T21:42:13.460Z,23.20
2017-07-03T21:44:41.737Z,23.20
2017-07-03T21:47:10.009Z,23.30
2017-07-03T21:49:39.225Z,23.40
2017-07-03T21:52:07.501Z,23.40
2017-07-03T21:54:35.799Z,23.40
2017-07-03T21:57:04.079Z,23.40
2017-07-03T21:59:33.107Z,23.50
2017-07-03T22:02:01.367Z,23.50
2017-07-03T22:04:29.685Z,23.50
2017-07-03T22:06:57.984Z,23.60
2017-07-03T22:09:26.266Z,23.60
2017-07-03T22:11:54.585Z,23.60
2017-07-03T22:14:22.862Z,23.70
2017-07-03T22:16:51.137Z,23.70
2017-07-03T22:19:19.441Z,23.70
2017-07-03T22:21:48.462Z,23.80
2017-07-03T22:24:16.738Z,23.80
2017-07-03T22:26:45.057Z,23.80
2017-07-03T22:29:13.361Z,23.90
2017-07-03T22:31:41.651Z,23.90
2017-07-03T22:34:10.747Z,23.90
2017-07-03T22:36:39.011Z,23.90
2017-07-03T22:39:07.282Z,24.00
2017-07-03T22:41:35.589Z,24.00
2017-07-03T22:44:03.873Z,24.00
2017-07-03T22:46:32.913Z,24.10
2017-07-03T22:49:01.222Z,24.10
2017-07-03T22:51:29.510Z,24.10
2017-07-03T22:53:57.800Z,24.10
2017-07-03T22:56:26.114Z,24.10
2017-07-03T22:58:54.373Z,24.20
2017-07-03T23:01:22.649Z,24.20
2017-07-03T23:03:50.961Z,24.20
2017-07-03T23:06:20.033Z,24.30
2017-07-03T23:08:48.295Z,24.30
2017-07-03T23:11:16.602Z,24.30
2017-07-03T23:13:44.882Z,24.30
2017-07-03T23:16:13.238Z,24.30
2017-07-03T23:18:41.570Z,24.30
2017-07-03T23:21:09.853Z,24.40
2017-07-03T23:23:38.156Z,24.40
2017-07-03T23:26:06.483Z,24.40
2017-07-03T23:28:34.745Z,24.40
2017-07-03T23:31:03.048Z,24.40
2017-07-03T23:33:32.120Z,24.40
2017-07-03T23:36:00.415Z,24.40
2017-07-03T23:38:28.698Z,24.40
2017-07-03T23:40:57.036Z,24.40
2017-07-03T23:43:25.309Z,24.50
2017-07-03T23:45:53.688Z,24.50
2017-07-03T23:48:21.967Z,24.50
2017-07-03T23:50:50.222Z,24.50
2017-07-03T23:53:18.698Z,24.60
2017-07-03T23:55:47.032Z,24.60
2017-07-03T23:58:15.314Z,24.60
